createdAt,value
2018-10-05T07:49:27.962Z,26.5
2018-10-05T07:54:30.409Z,26.3
2018-10-05T07:59:32.847Z,26.8
2018-10-05T08:04:35.430Z,27.4
2018-10-05T08:09:37.870Z,28
2018-10-05T08:14:40.272Z,28.1
2018-10-05T08:19:42.697Z,28.2
2018-10-05T08:24:45.133Z,28.1
2018-10-05T08:29:47.593Z,27.6
2018-10-05T08:34:50.159Z,27.7
2018-10-05T08:39:52.602Z,27.6
2018-10-05T08:44:54.964Z,25.2
2018-10-05T08:49:57.472Z,23
2018-10-05T08:54:59.915Z,21.3
2018-10-05T09:00:02.457Z,20
2018-10-05T09:05:04.815Z,19.2
2018-10-05T09:10:07.304Z,18.6
2018-10-05T09:15:09.784Z,18.2
2018-10-05T09:20:12.189Z,18.1
2018-10-05T09:25:14.637Z,17.9
2018-10-05T09:30:17.129Z,17.9
2018-10-05T09:35:19.811Z,18
2018-10-05T09:40:22.023Z,17.9
2018-10-05T09:45:24.586Z,17.9
2018-10-05T09:50:27.029Z,17.8
2018-10-05T09:55:29.399Z,17.8
2018-10-05T10:00:31.889Z,17.9
2018-10-05T10:05:34.329Z,18.1
2018-10-05T10:10:36.800Z,18.2
2018-10-05T10:15:39.256Z,18.3
2018-10-05T10:20:41.681Z,18.4
2018-10-05T10:25:44.144Z,18.5
2018-10-05T10:30:46.596Z,18.6
2018-10-05T10:35:49.053Z,18.8
2018-10-05T10:40:51.542Z,18.8
2018-10-05T10:45:53.963Z,19
2018-10-05T10:50:56.443Z,19.1
2018-10-05T10:55:59.163Z,19.2
2018-10-05T11:01:01.366Z,19.3
2018-10-05T11:06:03.804Z,19.3
2018-10-05T11:11:06.297Z,19.4
2018-10-05T11:16:08.721Z,19.5
2018-10-05T11:21:11.268Z,19.6
2018-10-05T11:26:13.721Z,19.6
2018-10-05T11:31:16.117Z,19.6
2018-10-05T11:41:21.025Z,19.8
2018-10-05T11:46:23.520Z,19.6
2018-10-05T11:51:25.928Z,19.5
2018-10-05T11:56:28.413Z,19.4
2018-10-05T12:01:30.860Z,19.3
2018-10-05T12:06:33.310Z,19.4
2018-10-05T12:11:35.762Z,19.6
2018-10-05T12:16:38.256Z,19.7
2018-10-05T12:21:40.761Z,19.7
2018-10-05T12:26:43.242Z,19.6
2018-10-05T12:31:45.586Z,19.6
2018-10-05T12:36:48.043Z,19.7
2018-10-05T12:41:50.555Z,19.7
2018-10-05T12:46:52.959Z,19.7
2018-10-05T12:51:55.420Z,19.8
2018-10-05T12:56:57.880Z,19.8
2018-10-05T13:02:00.343Z,19.8
2018-10-05T13:07:02.802Z,19.8
2018-10-05T13:12:05.336Z,19.9
2018-10-05T13:17:07.726Z,19.8
2018-10-05T13:22:10.176Z,19.8
2018-10-05T13:27:12.623Z,19.8
2018-10-05T13:32:15.083Z,19.8
2018-10-05T13:37:17.629Z,19.8
2018-10-05T13:42:20.006Z,19.6
2018-10-05T13:47:22.469Z,19.5
2018-10-05T13:52:24.918Z,19.6
2018-10-05T13:57:27.388Z,19.5
2018-10-05T14:02:29.898Z,19.4
2018-10-05T14:07:32.315Z,19.3
2018-10-05T14:12:34.769Z,19.2
2018-10-05T14:17:37.212Z,19.2
2018-10-05T14:22:39.688Z,19.3
2018-10-05T14:27:42.133Z,19.5
2018-10-05T14:32:44.589Z,19.6
2018-10-05T14:37:47.054Z,19.6
2018-10-05T14:42:49.503Z,19.6
2018-10-05T14:47:51.958Z,19.5
2018-10-05T14:52:54.418Z,19.3
2018-10-05T14:57:56.966Z,19.2
2018-10-05T15:02:59.377Z,19
2018-10-05T15:08:01.837Z,18.9
2018-10-05T15:13:04.304Z,18.6
2018-10-05T15:18:06.726Z,18.4
2018-10-05T15:23:09.171Z,18.3
2018-10-05T15:28:11.647Z,18.1
2018-10-05T15:33:14.100Z,17.9
2018-10-05T15:38:16.539Z,17.7
2018-10-05T15:43:19.002Z,17.6
2018-10-05T15:48:21.540Z,17.4
2018-10-05T15:53:24.022Z,17.2
2018-10-05T15:58:26.379Z,16.9
2018-10-05T16:03:28.846Z,16.8
2018-10-05T16:08:31.293Z,16.7
2018-10-05T16:13:33.754Z,16.5
2018-10-05T16:18:36.221Z,16.4
2018-10-05T16:23:38.713Z,16.2
2018-10-05T16:28:41.135Z,16
2018-10-05T16:33:43.596Z,15.7
2018-10-05T16:38:46.064Z,15.6
2018-10-05T16:43:48.564Z,15.5
2018-10-05T16:48:50.981Z,15.4
2018-10-05T16:53:53.416Z,15.2
2018-10-05T16:58:55.931Z,15.1
2018-10-05T17:03:58.422Z,15
2018-10-05T17:09:00.796Z,14.8
2018-10-05T17:14:03.290Z,14.6
2018-10-05T17:19:05.702Z,14.4
2018-10-05T17:24:08.177Z,14.3
2018-10-05T17:29:10.658Z,14.1
2018-10-05T17:34:13.089Z,14
2018-10-05T17:39:15.548Z,13.9
2018-10-05T17:44:18.007Z,13.8
2018-10-05T17:49:20.465Z,13.7
2018-10-05T17:54:22.907Z,13.5
2018-10-05T17:59:25.365Z,13.4
2018-10-05T18:04:27.835Z,13.2
2018-10-05T18:09:30.281Z,13.1
2018-10-05T18:14:32.756Z,13.1
2018-10-05T18:19:35.266Z,13
2018-10-05T18:24:37.697Z,12.9
2018-10-05T18:29:40.155Z,12.9
2018-10-05T18:34:42.590Z,12.8
2018-10-05T18:39:45.044Z,12.7
2018-10-05T18:44:47.489Z,12.6
2018-10-05T18:49:49.946Z,12.4
2018-10-05T18:54:52.401Z,12.4
2018-10-05T18:59:54.867Z,12.4
2018-10-05T19:04:57.320Z,12.4
2018-10-05T19:09:59.795Z,12.4
2018-10-05T19:15:02.263Z,12.3
2018-10-05T19:20:04.714Z,12.1
2018-10-05T19:25:07.172Z,12
2018-10-05T19:30:09.618Z,11.7
2018-10-05T19:35:12.071Z,11.5
2018-10-05T19:40:14.540Z,11.2
2018-10-05T19:45:16.982Z,11.1
2018-10-05T19:50:19.424Z,10.9
2018-10-05T19:55:21.987Z,10.7
2018-10-05T20:00:24.397Z,10.5
2018-10-05T20:05:26.813Z,10.3
2018-10-05T20:10:29.254Z,10.3
2018-10-05T20:15:31.753Z,10.2
2018-10-05T20:20:34.239Z,10.2
2018-10-05T20:25:36.644Z,10.4
2018-10-05T20:30:39.132Z,10.6
2018-10-05T20:35:41.615Z,10.9
2018-10-05T20:40:44.015Z,11.1
2018-10-05T20:45:46.478Z,11.4
2018-10-05T20:50:48.933Z,11.7
2018-10-05T20:55:51.385Z,11.9
2018-10-05T21:00:53.852Z,12.1
2018-10-05T21:05:56.295Z,12.1
2018-10-05T21:10:58.757Z,12.1
2018-10-05T21:16:01.213Z,12.3
2018-10-05T21:21:03.684Z,12.3
2018-10-05T21:26:06.127Z,12.3
2018-10-05T21:31:08.593Z,12.4
2018-10-05T21:36:11.050Z,12.5
2018-10-05T21:41:13.501Z,12.6
2018-10-05T21:46:15.975Z,12.5
2018-10-05T21:51:18.460Z,12.5
2018-10-05T21:56:20.891Z,12.3
2018-10-05T22:01:23.364Z,12.3
2018-10-05T22:06:25.799Z,12.3
2018-10-05T22:11:28.254Z,12.5
2018-10-05T22:16:30.732Z,12.7
2018-10-05T22:21:33.173Z,12.9
2018-10-05T22:26:35.644Z,13
2018-10-05T22:31:38.119Z,13.1
2018-10-05T22:36:40.549Z,13.1
2018-10-05T22:41:42.998Z,13
2018-10-05T22:46:45.461Z,12.9
2018-10-05T22:51:47.897Z,12.8
2018-10-05T22:56:50.365Z,12.7
2018-10-05T23:01:52.852Z,12.6
2018-10-05T23:06:55.292Z,12.5
2018-10-05T23:11:57.733Z,12.3
2018-10-05T23:17:00.212Z,12.3
2018-10-05T23:22:02.663Z,12.2
2018-10-05T23:27:05.117Z,12.1
2018-10-05T23:32:07.582Z,11.9
2018-10-05T23:37:10.040Z,11.9
2018-10-05T23:42:12.507Z,11.7
2018-10-05T23:47:14.950Z,11.7
2018-10-05T23:52:17.454Z,11.6
2018-10-05T23:57:19.884Z,11.5
